Time;durP1;ratioP1;P1;durP2;ratioP2;P2;SDS_P1;SDS_P2;PMS_P1;PMS_P2;Temp;Humidity;BMP_temperature;BMP_pressure;BME280_temperature;BME280_humidity;BME280_pressure;Samples;Min_cycle;Max_cycle;Signal;HPM_P1;HPM_P2
2021/05/13 00:02:19;;;;;;;1.40;1.40;;;12.40;99.90;;;;;;5031104;28;20216;-76
2021/05/13 00:04:46;;;;;;;1.50;1.48;;;12.40;99.90;;;;;;5029703;28;20208;-77
2021/05/13 00:07:13;;;;;;;1.50;1.40;;;12.40;99.90;;;;;;5037480;28;20227;-76
2021/05/13 00:09:42;;;;;;;1.67;1.40;;;12.40;99.90;;;;;;5037142;28;20706;-76
2021/05/13 00:12:15;;;;;;;3.05;1.58;;;12.50;99.90;;;;;;5038749;28;20207;-77
2021/05/13 00:14:41;;;;;;;1.40;1.40;;;12.50;99.90;;;;;;5029333;28;20852;-76
2021/05/13 00:17:08;;;;;;;1.70;1.60;;;12.50;99.90;;;;;;5031181;28;20207;-77
2021/05/13 00:19:35;;;;;;;1.20;1.20;;;12.40;99.90;;;;;;5038436;28;20759;-76
2021/05/13 00:22:02;;;;;;;1.67;1.58;;;12.40;99.90;;;;;;5032062;28;20214;-77
2021/05/13 00:24:28;;;;;;;1.40;1.40;;;12.30;99.90;;;;;;5035433;28;20206;-77
2021/05/13 00:26:59;;;;;;;1.55;1.50;;;12.30;99.90;;;;;;5034734;28;20203;-77
2021/05/13 00:29:27;;;;;;;1.73;1.63;;;12.30;99.90;;;;;;5033255;28;20200;-76
2021/05/13 00:31:54;;;;;;;1.60;1.50;;;12.30;99.90;;;;;;5030575;28;20561;-76
2021/05/13 00:34:20;;;;;;;1.73;1.63;;;12.30;99.90;;;;;;5031315;28;20196;-77
2021/05/13 00:36:47;;;;;;;1.75;1.65;;;12.40;99.90;;;;;;5030732;28;20197;-76
2021/05/13 00:39:13;;;;;;;1.48;1.48;;;12.40;99.90;;;;;;5030053;28;20203;-76
2021/05/13 00:41:40;;;;;;;1.77;1.67;;;12.50;99.90;;;;;;5037745;28;20207;-77
2021/05/13 00:44:07;;;;;;;1.80;1.70;;;12.40;99.90;;;;;;5029604;28;20220;-76
2021/05/13 00:46:36;;;;;;;1.60;1.50;;;12.40;99.90;;;;;;5040240;28;20661;-77
2021/05/13 00:49:05;;;;;;;1.80;1.70;;;12.30;99.90;;;;;;5032241;28;20223;-76
2021/05/13 00:51:32;;;;;;;1.80;1.70;;;12.20;99.90;;;;;;5030229;28;20203;-77
2021/05/13 00:53:58;;;;;;;1.80;1.70;;;12.20;99.90;;;;;;5028293;28;20636;-76
2021/05/13 00:56:27;;;;;;;1.80;1.50;;;12.20;99.90;;;;;;5033513;28;20273;-76
2021/05/13 00:58:56;;;;;;;1.45;1.35;;;12.20;99.90;;;;;;5032948;28;20238;-76
2021/05/13 01:01:23;;;;;;;1.60;1.50;;;12.20;99.90;;;;;;5034813;28;20226;-77
2021/05/13 01:03:51;;;;;;;1.55;1.50;;;12.20;99.90;;;;;;5032603;28;20199;-77
2021/05/13 01:06:18;;;;;;;1.70;1.60;;;12.30;99.90;;;;;;5032593;28;20196;-76
2021/05/13 01:08:44;;;;;;;1.70;1.60;;;12.20;99.90;;;;;;5028247;28;20204;-77
2021/05/13 01:11:13;;;;;;;1.80;1.70;;;12.20;99.90;;;;;;5031379;28;20226;-76
2021/05/13 01:13:58;;;;;;;2.20;1.92;;;12.20;99.90;;;;;;5030219;28;20192;-76
2021/05/13 01:16:35;;;;;;;1.80;1.70;;;12.10;99.90;;;;;;5029743;28;20219;-77
2021/05/13 01:19:08;;;;;;;1.67;1.50;;;12.00;99.90;;;;;;5029534;28;20214;-76
2021/05/13 01:21:38;;;;;;;1.40;1.33;;;12.10;99.90;;;;;;5038074;28;20199;-77
2021/05/13 01:24:06;;;;;;;1.70;1.60;;;12.10;99.90;;;;;;5032106;28;20764;-76
2021/05/13 01:26:33;;;;;;;1.85;1.75;;;12.10;99.90;;;;;;5037813;28;20203;-77
2021/05/13 01:29:00;;;;;;;1.48;1.40;;;12.10;99.90;;;;;;5034858;28;20219;-76
2021/05/13 01:31:27;;;;;;;1.33;1.33;;;12.00;99.90;;;;;;5028436;28;20242;-74
2021/05/13 01:33:53;;;;;;;1.70;1.60;;;12.00;99.90;;;;;;5029948;28;20199;-77
2021/05/13 01:36:20;;;;;;;1.45;1.35;;;12.00;99.90;;;;;;5034850;28;20223;-77
2021/05/13 01:38:47;;;;;;;1.40;1.40;;;11.90;99.90;;;;;;5033488;28;20230;-77
2021/05/13 01:41:14;;;;;;;1.70;1.60;;;11.80;99.90;;;;;;5029273;28;20618;-77
2021/05/13 01:43:41;;;;;;;1.50;1.50;;;11.90;99.90;;;;;;5026007;28;20246;-76
2021/05/13 01:46:07;;;;;;;1.83;1.73;;;11.90;99.90;;;;;;5034499;28;20609;-76
2021/05/13 01:48:35;;;;;;;1.30;1.25;;;11.90;99.90;;;;;;5031199;28;20199;-77
2021/05/13 01:51:02;;;;;;;1.60;1.50;;;11.90;99.90;;;;;;5033598;28;20719;-76
2021/05/13 01:53:28;;;;;;;1.50;1.40;;;11.90;99.90;;;;;;5030205;28;20262;-77
2021/05/13 01:55:56;;;;;;;1.50;1.40;;;11.90;99.90;;;;;;5029128;28;20744;-76
2021/05/13 01:58:22;;;;;;;1.30;1.30;;;11.90;99.90;;;;;;5033275;28;20200;-76
2021/05/13 02:00:50;;;;;;;1.40;1.40;;;11.90;99.90;;;;;;5028815;28;20222;-77
2021/05/13 02:03:17;;;;;;;1.60;1.50;;;11.90;99.90;;;;;;5035095;28;20246;-76
2021/05/13 02:05:43;;;;;;;1.90;1.80;;;11.80;99.90;;;;;;5029724;28;20215;-76
2021/05/13 02:08:10;;;;;;;1.50;1.50;;;11.80;99.90;;;;;;5029095;28;20285;-77
2021/05/13 02:10:40;;;;;;;1.40;1.40;;;11.80;99.90;;;;;;5029826;28;20717;-76
2021/05/13 02:13:07;;;;;;;1.40;1.27;;;11.80;99.90;;;;;;5029338;28;20203;-76
2021/05/13 02:15:34;;;;;;;1.52;1.42;;;11.80;99.90;;;;;;5032601;28;20212;-76
2021/05/13 02:18:01;;;;;;;1.52;1.42;;;11.80;99.90;;;;;;5030757;28;20200;-77
2021/05/13 02:20:27;;;;;;;1.80;1.40;;;11.80;99.90;;;;;;5030945;28;20219;-76
2021/05/13 02:22:55;;;;;;;1.42;1.33;;;11.80;99.90;;;;;;5032566;28;20210;-77
2021/05/13 02:25:22;;;;;;;1.42;1.42;;;11.80;99.90;;;;;;5030851;28;20223;-77
2021/05/13 02:27:49;;;;;;;1.52;1.42;;;11.80;99.90;;;;;;5029119;28;20199;-76
2021/05/13 02:30:16;;;;;;;1.60;1.50;;;11.80;99.90;;;;;;5032929;28;20222;-76
2021/05/13 02:32:43;;;;;;;1.27;1.27;;;11.80;99.90;;;;;;5027702;28;20201;-77
2021/05/13 02:35:12;;;;;;;1.45;1.45;;;11.70;99.90;;;;;;5024759;28;20226;-76
2021/05/13 02:37:39;;;;;;;1.50;1.40;;;11.70;99.90;;;;;;5030927;28;20199;-77
2021/05/13 02:42:33;;;;;;;1.40;1.40;;;11.70;99.90;;;;;;5047819;28;20572;-72
2021/05/13 02:45:00;;;;;;;2.22;1.55;;;11.70;99.90;;;;;;5035185;28;20216;-72
2021/05/13 02:47:27;;;;;;;1.42;1.33;;;11.70;99.90;;;;;;5028509;28;20561;-72
2021/05/13 02:49:54;;;;;;;1.67;1.58;;;11.70;99.90;;;;;;5021707;28;20338;-72
2021/05/13 02:52:21;;;;;;;1.38;1.38;;;11.70;99.90;;;;;;5023653;28;20215;-72
2021/05/13 02:54:47;;;;;;;1.25;1.25;;;11.70;99.90;;;;;;5024204;28;20698;-72
2021/05/13 02:57:14;;;;;;;1.65;1.55;;;11.70;99.90;;;;;;5023298;28;20196;-72
2021/05/13 02:59:44;;;;;;;1.60;1.50;;;11.70;99.90;;;;;;5025415;28;20223;-72
2021/05/13 03:02:11;;;;;;;1.40;1.30;;;11.70;99.90;;;;;;5024563;28;20768;-78
2021/05/13 03:04:39;;;;;;;1.50;1.40;;;11.70;99.90;;;;;;5021974;28;20235;-74
2021/05/13 03:07:06;;;;;;;1.40;1.30;;;11.70;99.90;;;;;;5026336;28;20203;-75
2021/05/13 03:09:36;;;;;;;1.50;1.40;;;11.70;99.90;;;;;;5022728;28;20231;-72
2021/05/13 03:12:02;;;;;;;1.42;1.33;;;11.70;99.90;;;;;;5026256;28;20223;-75
2021/05/13 03:14:29;;;;;;;1.60;1.50;;;11.70;99.90;;;;;;5023638;28;20593;-72
2021/05/13 03:16:56;;;;;;;1.27;1.23;;;11.80;99.90;;;;;;5025377;28;20231;-75
2021/05/13 03:19:27;;;;;;;1.20;1.20;;;11.70;99.90;;;;;;5034753;28;20219;-74
2021/05/13 03:21:57;;;;;;;1.58;1.58;;;11.70;99.90;;;;;;5022510;28;20622;-72
2021/05/13 03:24:27;;;;;;;4.72;1.85;;;11.70;99.90;;;;;;5023182;28;20226;-77
2021/05/13 03:27:01;;;;;;;1.52;1.50;;;11.70;99.90;;;;;;5025610;28;20196;-76
2021/05/13 03:29:28;;;;;;;1.50;1.40;;;11.60;99.90;;;;;;5021657;28;20250;-76
2021/05/13 03:31:55;;;;;;;1.60;1.50;;;11.60;99.90;;;;;;5023944;28;20219;-72
2021/05/13 03:34:21;;;;;;;3.28;1.77;;;11.60;99.90;;;;;;5021457;28;20204;-74
2021/05/13 03:36:48;;;;;;;1.55;1.45;;;11.60;99.90;;;;;;5024874;28;20223;-73
2021/05/13 03:39:15;;;;;;;1.52;1.50;;;11.60;99.90;;;;;;5026615;28;20575;-74
2021/05/13 03:41:42;;;;;;;1.77;1.67;;;11.60;99.90;;;;;;5027891;28;20231;-73
2021/05/13 03:44:09;;;;;;;1.70;1.60;;;11.60;99.90;;;;;;5027720;28;20199;-73
2021/05/13 03:46:35;;;;;;;1.20;1.20;;;11.60;99.90;;;;;;5027654;28;20206;-73
2021/05/13 03:49:02;;;;;;;1.70;1.60;;;11.60;99.90;;;;;;5027318;28;20228;-75
2021/05/13 03:51:28;;;;;;;1.60;1.52;;;11.60;99.90;;;;;;5027819;28;20227;-74
2021/05/13 03:53:55;;;;;;;1.48;1.38;;;11.60;99.90;;;;;;5028776;28;20244;-74
2021/05/13 03:56:23;;;;;;;1.40;1.40;;;11.60;99.90;;;;;;5029182;28;20230;-73
2021/05/13 03:58:54;;;;;;;1.60;1.60;;;11.60;99.90;;;;;;5028336;28;20196;-75
2021/05/13 04:01:31;;;;;;;1.63;1.60;;;11.60;99.90;;;;;;5025218;28;20608;-75
2021/05/13 04:03:57;;;;;;;1.65;1.58;;;11.60;99.90;;;;;;5027417;28;20222;-74
2021/05/13 04:06:24;;;;;;;1.48;1.38;;;11.60;99.90;;;;;;5030710;28;20215;-74
2021/05/13 04:08:51;;;;;;;1.77;1.67;;;11.60;99.90;;;;;;5026489;28;20196;-74
2021/05/13 04:11:18;;;;;;;1.58;1.58;;;11.60;99.90;;;;;;5034803;28;20227;-72
2021/05/13 04:13:45;;;;;;;1.70;1.60;;;11.60;99.90;;;;;;5029043;28;20196;-75
2021/05/13 04:16:12;;;;;;;1.38;1.38;;;11.50;99.90;;;;;;5025989;28;20230;-73
2021/05/13 04:18:39;;;;;;;1.60;1.50;;;11.60;99.90;;;;;;5026154;28;20307;-75
2021/05/13 04:21:06;;;;;;;1.30;1.30;;;11.50;99.90;;;;;;5026602;28;20598;-73
2021/05/13 04:23:32;;;;;;;1.67;1.58;;;11.50;99.90;;;;;;5025528;28;20204;-76
2021/05/13 04:25:59;;;;;;;1.70;1.60;;;11.40;99.90;;;;;;5025148;28;20222;-74
2021/05/13 04:28:25;;;;;;;1.85;1.40;;;11.40;99.90;;;;;;5028611;28;20200;-75
2021/05/13 04:30:53;;;;;;;1.40;1.40;;;11.40;99.90;;;;;;5039585;28;20223;-75
2021/05/13 04:33:19;;;;;;;1.50;1.40;;;11.50;99.90;;;;;;5049140;28;20199;-75
2021/05/13 04:35:46;;;;;;;1.80;1.70;;;11.60;99.90;;;;;;5042404;28;20215;-74
2021/05/13 04:38:15;;;;;;;1.65;1.55;;;11.70;99.90;;;;;;5044315;28;20565;-77
2021/05/13 04:40:42;;;;;;;1.45;1.45;;;11.80;99.90;;;;;;5042371;28;20771;-74
2021/05/13 04:43:09;;;;;;;1.60;1.50;;;12.00;99.90;;;;;;5046157;28;20265;-74
2021/05/13 04:45:36;;;;;;;1.50;1.40;;;12.10;99.90;;;;;;5043295;28;20210;-72
2021/05/13 04:48:09;;;;;;;1.58;1.48;;;12.20;99.90;;;;;;5044069;28;21181;-74
2021/05/13 04:50:36;;;;;;;1.50;1.40;;;12.40;99.90;;;;;;5042437;28;20235;-75
2021/05/13 04:53:08;;;;;;;1.70;1.60;;;12.40;99.90;;;;;;5044231;28;20207;-73
2021/05/13 04:55:35;;;;;;;1.45;1.35;;;12.50;99.90;;;;;;5043035;28;20693;-72
2021/05/13 04:58:01;;;;;;;1.70;1.60;;;12.60;99.90;;;;;;5043050;28;20191;-74
2021/05/13 05:00:28;;;;;;;1.55;1.45;;;12.70;99.90;;;;;;5045529;28;20228;-73
2021/05/13 05:02:56;;;;;;;1.80;1.70;;;12.80;99.90;;;;;;5042347;28;20202;-72
2021/05/13 05:05:24;;;;;;;1.40;1.33;;;12.70;99.90;;;;;;5048286;28;20945;-74
2021/05/13 05:07:51;;;;;;;1.40;1.30;;;12.60;99.90;;;;;;5041417;28;20657;-72
2021/05/13 05:10:18;;;;;;;1.77;1.67;;;12.60;99.90;;;;;;5041114;28;20226;-73
2021/05/13 05:12:45;;;;;;;1.40;1.40;;;12.50;99.90;;;;;;5040500;28;20792;-72
2021/05/13 05:15:12;;;;;;;1.80;1.70;;;12.50;99.90;;;;;;5040884;28;20223;-72
2021/05/13 05:17:39;;;;;;;1.92;1.73;;;12.50;99.90;;;;;;5047997;28;20721;-73
2021/05/13 05:20:07;;;;;;;1.55;1.45;;;12.70;99.90;;;;;;5041859;28;20223;-73
2021/05/13 05:22:34;;;;;;;1.40;1.38;;;12.70;99.90;;;;;;5045038;28;20599;-72
2021/05/13 05:25:01;;;;;;;1.60;1.50;;;12.80;99.90;;;;;;5046394;28;20223;-72
2021/05/13 05:27:27;;;;;;;1.60;1.50;;;12.90;99.90;;;;;;5041723;28;20234;-73
2021/05/13 05:29:54;;;;;;;1.60;1.50;;;13.00;99.90;;;;;;5043537;28;20219;-75
2021/05/13 05:32:20;;;;;;;1.70;1.60;;;13.10;99.90;;;;;;5039752;28;20219;-71
2021/05/13 05:34:47;;;;;;;1.67;1.58;;;13.10;99.90;;;;;;5037746;28;20578;-72
2021/05/13 05:37:14;;;;;;;1.35;1.30;;;13.20;99.90;;;;;;5045579;28;20215;-73
2021/05/13 05:39:41;;;;;;;1.30;1.30;;;13.30;99.90;;;;;;5039773;28;20195;-73
2021/05/13 05:42:08;;;;;;;2.00;1.40;;;13.50;99.90;;;;;;5042357;28;20605;-74
2021/05/13 05:44:34;;;;;;;1.20;1.20;;;13.60;99.90;;;;;;5040867;28;20201;-73
2021/05/13 05:47:01;;;;;;;1.95;1.40;;;13.70;99.90;;;;;;5042775;28;20191;-77
2021/05/13 05:49:28;;;;;;;1.50;1.40;;;13.70;99.90;;;;;;5042104;28;20253;-76
2021/05/13 05:51:54;;;;;;;3.42;1.70;;;13.60;99.90;;;;;;5040666;28;20231;-74
2021/05/13 05:54:21;;;;;;;2.15;1.42;;;13.70;99.90;;;;;;5038800;28;20203;-76
2021/05/13 05:56:48;;;;;;;1.52;1.42;;;13.80;99.90;;;;;;5044347;28;20226;-73
2021/05/13 05:59:15;;;;;;;1.55;1.48;;;14.00;99.90;;;;;;5037744;28;20206;-72
2021/05/13 06:01:41;;;;;;;1.50;1.45;;;14.00;99.90;;;;;;5039701;28;20710;-74
2021/05/13 06:04:08;;;;;;;1.27;1.27;;;14.20;99.90;;;;;;5038459;28;20192;-76
2021/05/13 06:06:36;;;;;;;1.40;1.30;;;14.40;99.90;;;;;;5042851;28;20211;-74
2021/05/13 06:09:04;;;;;;;1.50;1.40;;;14.50;99.90;;;;;;5036756;28;20325;-75
2021/05/13 06:11:30;;;;;;;1.50;1.40;;;14.50;99.90;;;;;;5039651;28;20222;-74
2021/05/13 06:13:58;;;;;;;1.27;1.27;;;14.60;99.90;;;;;;5041272;28;20200;-73
2021/05/13 06:16:25;;;;;;;1.40;1.33;;;14.70;99.90;;;;;;5042704;28;20269;-75
2021/05/13 06:18:53;;;;;;;1.83;1.60;;;14.70;99.90;;;;;;5042021;28;20206;-72
2021/05/13 06:21:20;;;;;;;1.98;1.83;;;14.70;99.90;;;;;;5037803;28;20231;-73
2021/05/13 06:23:48;;;;;;;1.67;1.48;;;14.70;99.90;;;;;;5038851;28;20203;-76
2021/05/13 06:26:25;;;;;;;1.55;1.45;;;14.60;99.90;;;;;;5043011;28;20582;-74
2021/05/13 06:28:51;;;;;;;1.58;1.48;;;14.60;99.90;;;;;;5037323;28;20241;-75
2021/05/13 06:31:19;;;;;;;1.40;1.30;;;14.70;99.90;;;;;;5044244;28;20281;-74
2021/05/13 06:33:46;;;;;;;1.80;1.58;;;14.70;99.90;;;;;;5043813;28;20200;-75
2021/05/13 06:36:13;;;;;;;2.58;1.40;;;14.80;99.90;;;;;;5042851;28;20276;-76
2021/05/13 06:38:39;;;;;;;1.48;1.30;;;15.00;99.90;;;;;;5042922;28;20703;-76
2021/05/13 06:41:07;;;;;;;3.63;1.50;;;15.00;99.90;;;;;;5036758;28;20226;-77
2021/05/13 06:43:34;;;;;;;2.25;1.40;;;15.20;99.90;;;;;;5041940;28;20199;-77
2021/05/13 06:46:01;;;;;;;1.73;1.40;;;15.30;99.90;;;;;;5039869;28;20219;-74
2021/05/13 06:48:28;;;;;;;1.42;1.40;;;15.40;99.90;;;;;;5044703;28;20615;-74
2021/05/13 06:50:55;;;;;;;1.30;1.30;;;15.50;99.90;;;;;;5037842;28;20218;-76
2021/05/13 06:53:22;;;;;;;2.30;1.20;;;15.70;99.90;;;;;;5041171;28;20195;-74
2021/05/13 06:55:52;;;;;;;1.30;1.20;;;16.10;99.90;;;;;;5043649;28;20292;-74
2021/05/13 06:58:19;;;;;;;2.63;1.52;;;16.30;99.90;;;;;;5043629;28;20207;-75
2021/05/13 07:00:49;;;;;;;1.45;1.35;;;16.40;99.90;;;;;;5044146;28;20233;-74
2021/05/13 07:03:16;;;;;;;2.25;1.38;;;16.50;99.90;;;;;;5044051;28;20834;-73
2021/05/13 07:05:44;;;;;;;1.42;1.30;;;16.50;99.90;;;;;;5037631;28;20215;-78
2021/05/13 07:08:10;;;;;;;3.15;1.50;;;16.40;99.90;;;;;;5044593;28;20663;-74
2021/05/13 07:10:37;;;;;;;2.20;1.05;;;16.30;99.90;;;;;;5036089;28;20227;-73
2021/05/13 07:13:04;;;;;;;3.45;1.35;;;16.30;99.90;;;;;;5032321;28;20199;-74
2021/05/13 07:15:32;;;;;;;1.13;1.13;;;16.30;99.90;;;;;;5030772;28;20728;-73
2021/05/13 07:17:58;;;;;;;1.30;1.20;;;16.30;99.90;;;;;;5031120;28;20655;-73
2021/05/13 07:20:25;;;;;;;1.10;1.10;;;16.50;99.90;;;;;;5029246;28;20578;-75
2021/05/13 07:22:53;;;;;;;1.13;1.02;;;16.40;99.90;;;;;;5026299;28;20268;-74
2021/05/13 07:25:20;;;;;;;1.25;1.15;;;16.30;99.90;;;;;;5029152;28;20235;-73
2021/05/13 07:27:47;;;;;;;1.20;1.20;;;16.30;99.90;;;;;;5035379;28;20677;-73
2021/05/13 07:30:15;;;;;;;1.35;1.25;;;16.20;99.90;;;;;;5033935;28;20239;-74
2021/05/13 07:32:43;;;;;;;1.70;1.30;;;16.10;99.90;;;;;;5032370;28;20199;-73
2021/05/13 07:35:12;;;;;;;1.10;1.10;;;16.00;99.90;;;;;;5028343;28;20207;-73
2021/05/13 07:37:39;;;;;;;4.60;1.25;;;16.00;99.90;;;;;;5028399;28;20203;-74
2021/05/13 07:40:09;;;;;;;1.33;1.20;;;16.00;99.90;;;;;;5033401;28;20209;-73
2021/05/13 07:42:38;;;;;;;1.55;1.45;;;16.20;99.90;;;;;;5029452;28;20734;-72
2021/05/13 07:45:07;;;;;;;1.20;1.17;;;16.20;99.90;;;;;;5029885;28;20192;-71
2021/05/13 07:47:37;;;;;;;1.63;1.52;;;16.30;99.90;;;;;;5024826;28;20253;-72
2021/05/13 07:50:05;;;;;;;1.40;1.30;;;16.50;99.90;;;;;;5027621;28;20202;-73
2021/05/13 07:52:32;;;;;;;1.75;1.20;;;16.60;99.90;;;;;;5031531;28;20569;-72
2021/05/13 07:54:59;;;;;;;1.30;1.20;;;16.70;99.90;;;;;;5031591;28;20537;-73
2021/05/13 07:57:26;;;;;;;1.05;1.05;;;16.80;99.90;;;;;;5029318;28;20223;-73
2021/05/13 07:59:54;;;;;;;1.45;1.27;;;17.10;99.90;;;;;;5028224;28;20199;-72
2021/05/13 08:02:21;;;;;;;1.30;1.20;;;17.30;99.90;;;;;;5030461;28;20215;-72
2021/05/13 08:04:48;;;;;;;1.85;1.20;;;17.40;99.90;;;;;;5029182;28;20633;-75
2021/05/13 08:07:17;;;;;;;1.48;1.38;;;17.60;99.90;;;;;;5021769;28;20219;-74
2021/05/13 08:09:44;;;;;;;1.55;1.45;;;17.80;99.90;;;;;;5038544;28;20191;-73
2021/05/13 08:12:11;;;;;;;3.30;1.13;;;17.80;99.90;;;;;;5031549;28;20238;-72
2021/05/13 08:14:39;;;;;;;1.38;1.10;;;17.80;99.90;;;;;;5028728;28;20226;-73
2021/05/13 08:17:06;;;;;;;1.40;1.30;;;17.90;99.90;;;;;;5030875;28;20223;-73
2021/05/13 08:19:32;;;;;;;1.25;1.15;;;17.90;99.90;;;;;;5028847;28;20214;-72
2021/05/13 08:21:59;;;;;;;1.23;1.23;;;17.90;99.90;;;;;;5030669;28;20264;-72
2021/05/13 08:24:25;;;;;;;1.23;1.23;;;17.90;99.90;;;;;;5037571;28;20199;-73
2021/05/13 08:26:52;;;;;;;1.40;1.30;;;18.00;99.90;;;;;;5036225;28;20475;-72
2021/05/13 08:29:19;;;;;;;1.63;1.20;;;18.20;99.90;;;;;;5039461;28;21130;-73
2021/05/13 08:31:46;;;;;;;1.05;1.00;;;18.30;99.90;;;;;;5039578;28;20226;-73
2021/05/13 08:34:13;;;;;;;1.20;1.10;;;18.30;99.90;;;;;;5039908;28;20192;-73
2021/05/13 08:36:39;;;;;;;1.10;1.10;;;18.40;99.90;;;;;;5033956;28;20605;-72
2021/05/13 08:39:06;;;;;;;1.15;1.08;;;18.50;99.90;;;;;;5035665;28;20206;-71
2021/05/13 08:41:33;;;;;;;1.45;1.13;;;18.60;99.90;;;;;;5049790;23;20634;-77
2021/05/13 08:44:00;;;;;;;0.93;0.93;;;18.60;99.90;;;;;;5021475;28;20188;-78
2021/05/13 08:46:27;;;;;;;1.13;1.00;;;18.70;99.90;;;;;;5019413;28;20234;-77
2021/05/13 08:48:54;;;;;;;1.30;1.20;;;18.80;99.90;;;;;;5024389;28;20591;-78
2021/05/13 08:51:21;;;;;;;1.10;1.10;;;18.70;99.90;;;;;;5017735;28;20227;-77
2021/05/13 08:53:49;;;;;;;1.10;1.00;;;18.70;99.90;;;;;;5019229;28;20195;-77
2021/05/13 08:56:17;;;;;;;1.05;1.05;;;18.60;99.90;;;;;;5004466;28;20224;-78
2021/05/13 08:58:43;;;;;;;0.98;0.98;;;18.60;99.90;;;;;;5000065;28;20196;-77
2021/05/13 09:01:15;;;;;;;1.05;0.95;;;18.90;99.90;;;;;;4996745;28;20277;-77
2021/05/13 09:03:42;;;;;;;0.85;0.85;;;19.00;99.90;;;;;;4993983;28;20193;-77
2021/05/13 09:06:21;;;;;;;0.80;0.80;;;19.00;99.90;;;;;;4996110;28;20228;-79
2021/05/13 09:08:47;;;;;;;0.82;0.80;;;18.90;99.90;;;;;;4992172;28;20466;-77
2021/05/13 09:11:17;;;;;;;0.90;0.90;;;19.00;99.90;;;;;;4996509;28;20261;-77
2021/05/13 09:13:48;;;;;;;0.70;0.70;;;19.10;99.90;;;;;;4995947;28;20763;-77
2021/05/13 09:16:29;;;;;;;1.90;0.90;;;19.20;99.90;;;;;;4998845;28;20299;-78
2021/05/13 09:18:56;;;;;;;0.90;0.80;;;19.30;99.90;;;;;;4996106;28;20188;-76
2021/05/13 09:21:24;;;;;;;0.75;0.75;;;19.60;99.90;;;;;;4998712;28;20224;-78
2021/05/13 09:23:51;;;;;;;0.80;0.80;;;19.80;99.90;;;;;;4998121;28;20636;-77
2021/05/13 09:26:19;;;;;;;0.80;0.80;;;20.00;99.90;;;;;;4993969;28;20220;-78
2021/05/13 09:28:47;;;;;;;1.00;0.90;;;20.20;99.90;;;;;;4996879;28;20205;-77
2021/05/13 09:31:37;;;;;;;1.00;0.90;;;20.50;99.90;;;;;;4995427;28;20228;-77
2021/05/13 09:34:05;;;;;;;0.80;0.80;;;20.50;99.90;;;;;;4998820;28;20196;-77
2021/05/13 09:36:33;;;;;;;6.18;1.13;;;20.20;99.90;;;;;;4996784;28;20247;-78
2021/05/13 09:39:00;;;;;;;0.88;0.88;;;19.90;99.90;;;;;;5003757;28;20192;-77
2021/05/13 09:41:31;;;;;;;0.93;0.90;;;19.60;99.90;;;;;;5000752;28;20235;-77
2021/05/13 09:43:57;;;;;;;0.80;0.80;;;19.40;99.90;;;;;;5000814;28;20676;-76
2021/05/13 09:46:35;;;;;;;0.90;0.90;;;19.20;99.90;;;;;;5005753;28;20276;-79
2021/05/13 09:49:02;;;;;;;0.90;0.90;;;19.20;99.90;;;;;;5020100;28;20552;-77
2021/05/13 09:51:30;;;;;;;1.10;1.02;;;19.30;99.90;;;;;;5015256;28;20223;-78
2021/05/13 09:54:09;;;;;;;0.90;0.90;;;19.30;99.90;;;;;;5024007;28;20196;-79
2021/05/13 09:56:38;;;;;;;0.73;0.73;;;19.30;99.90;;;;;;5008813;28;20228;-78
2021/05/13 09:59:24;;;;;;;1.23;0.70;;;19.30;99.90;;;;;;4999624;28;20204;-77
2021/05/13 10:01:51;;;;;;;0.90;0.90;;;19.40;99.90;;;;;;4997348;28;20274;-78
2021/05/13 10:04:18;;;;;;;1.67;1.10;;;19.30;99.90;;;;;;4997306;28;20204;-78
2021/05/13 10:06:45;;;;;;;0.80;0.80;;;19.30;99.90;;;;;;4995790;28;20228;-77
2021/05/13 10:09:15;;;;;;;1.00;1.00;;;19.20;99.90;;;;;;5001058;28;20209;-79
2021/05/13 10:11:43;;;;;;;0.95;0.95;;;19.10;99.90;;;;;;4998689;28;20336;-78
2021/05/13 10:14:10;;;;;;;1.02;1.00;;;19.40;99.90;;;;;;4993820;28;20224;-78
2021/05/13 10:16:40;;;;;;;1.00;0.90;;;20.10;99.90;;;;;;4993179;28;20267;-78
2021/05/13 10:19:11;;;;;;;5.13;1.10;;;20.60;99.90;;;;;;4994293;28;20726;-78
2021/05/13 10:21:41;;;;;;;0.80;0.80;;;21.20;99.90;;;;;;4997862;28;20231;-78
2021/05/13 10:24:09;;;;;;;0.85;0.85;;;21.50;99.90;;;;;;4996388;28;20566;-79
2021/05/13 10:26:44;;;;;;;0.93;0.90;;;21.20;99.90;;;;;;4997182;28;20217;-77
2021/05/13 10:29:35;;;;;;;0.75;0.75;;;21.00;99.90;;;;;;4990517;28;20332;-77
2021/05/13 10:32:10;;;;;;;0.82;0.82;;;20.90;99.90;;;;;;4993039;28;20235;-78
2021/05/13 10:34:54;;;;;;;1.92;0.93;;;21.00;99.90;;;;;;4990428;28;20592;-77
2021/05/13 10:37:33;;;;;;;0.80;0.80;;;20.80;99.90;;;;;;4990643;28;21082;-78
2021/05/13 10:40:30;;;;;;;1.15;1.05;;;20.70;99.90;;;;;;4992542;28;20567;-77
2021/05/13 10:43:03;;;;;;;0.60;0.60;;;20.60;99.90;;;;;;4992974;28;20341;-77
2021/05/13 10:45:38;;;;;;;0.60;0.60;;;20.60;99.90;;;;;;4994709;28;20243;-78
2021/05/13 10:48:23;;;;;;;0.70;0.70;;;20.70;99.90;;;;;;4997037;28;20338;-77
2021/05/13 10:50:53;;;;;;;1.30;0.80;;;20.80;99.90;;;;;;4996980;28;20283;-77
2021/05/13 10:53:49;;;;;;;0.77;0.60;;;20.90;99.90;;;;;;4999337;28;20258;-77
2021/05/13 10:56:24;;;;;;;0.63;0.63;;;20.80;99.90;;;;;;4922295;29;20246;-78
2021/05/13 10:58:58;;;;;;;0.80;0.80;;;20.80;99.90;;;;;;4980365;28;20195;-78
2021/05/13 11:01:39;;;;;;;0.70;0.70;;;20.80;99.90;;;;;;4994109;28;20658;-77
2021/05/13 11:04:40;;;;;;;0.80;0.80;;;20.60;99.90;;;;;;4999022;28;20188;-78
2021/05/13 11:07:29;;;;;;;0.80;0.80;;;20.50;99.90;;;;;;4991882;28;20244;-79
2021/05/13 11:10:00;;;;;;;0.70;0.70;;;20.40;99.90;;;;;;4994195;28;20294;-79
2021/05/13 11:12:28;;;;;;;0.73;0.73;;;20.50;99.90;;;;;;4995571;28;20714;-78
2021/05/13 11:15:07;;;;;;;0.80;0.80;;;20.50;99.90;;;;;;4993026;28;20216;-78
2021/05/13 11:18:04;;;;;;;0.70;0.70;;;20.50;99.90;;;;;;5007494;28;20288;-78
2021/05/13 11:20:33;;;;;;;0.80;0.80;;;20.50;99.90;;;;;;5020222;28;20191;-78
2021/05/13 11:23:02;;;;;;;1.38;0.80;;;20.50;99.90;;;;;;5014456;28;20238;-77
2021/05/13 11:25:36;;;;;;;0.60;0.60;;;20.50;99.90;;;;;;5016314;28;20503;-78
2021/05/13 11:28:23;;;;;;;0.88;0.70;;;20.50;99.90;;;;;;5014472;28;20211;-78
2021/05/13 11:30:52;;;;;;;1.15;0.70;;;20.30;99.90;;;;;;5016450;28;20199;-77
2021/05/13 11:33:19;;;;;;;0.60;0.60;;;20.20;99.90;;;;;;5012950;28;20196;-78
2021/05/13 11:35:47;;;;;;;0.82;0.80;;;20.20;99.90;;;;;;5016736;28;20222;-78
2021/05/13 11:38:18;;;;;;;2.53;0.82;;;20.40;99.90;;;;;;5014407;28;20246;-78
2021/05/13 11:40:46;;;;;;;1.90;1.10;;;20.80;99.90;;;;;;5016817;28;20856;-77
2021/05/13 11:43:21;;;;;;;0.93;0.85;;;21.20;99.90;;;;;;5010437;28;20216;-78
2021/05/13 11:45:49;;;;;;;1.10;0.93;;;21.50;99.90;;;;;;5011293;28;20697;-78
2021/05/13 11:48:23;;;;;;;0.90;0.90;;;21.60;99.90;;;;;;5018305;28;20639;-78
2021/05/13 11:50:50;;;;;;;0.65;0.65;;;21.90;99.90;;;;;;5007521;28;20204;-75
2021/05/13 11:53:18;;;;;;;0.60;0.60;;;22.10;99.90;;;;;;5014428;28;20227;-76
2021/05/13 11:55:47;;;;;;;0.68;0.68;;;22.10;99.90;;;;;;5011312;28;20674;-75
2021/05/13 11:58:16;;;;;;;0.60;0.60;;;21.90;99.90;;;;;;5016524;28;20231;-77
2021/05/13 12:00:42;;;;;;;0.75;0.65;;;21.50;99.90;;;;;;5014475;28;20212;-76
2021/05/13 12:03:10;;;;;;;0.57;0.57;;;21.30;99.90;;;;;;5013144;28;20250;-76
2021/05/13 12:05:52;;;;;;;1.85;0.70;;;21.10;99.90;;;;;;5016604;28;20608;-78
2021/05/13 12:08:20;;;;;;;0.70;0.70;;;20.60;99.90;;;;;;5022167;28;20250;-76
2021/05/13 12:10:47;;;;;;;3.38;0.70;;;20.20;99.90;;;;;;5017065;28;20214;-79
2021/05/13 12:13:14;;;;;;;0.60;0.60;;;19.80;99.90;;;;;;5023106;28;20234;-78
2021/05/13 12:15:41;;;;;;;0.85;0.60;;;19.30;99.90;;;;;;5018366;28;20204;-77
2021/05/13 12:18:08;;;;;;;1.80;0.82;;;19.00;99.90;;;;;;5017870;28;20222;-76
2021/05/13 12:20:37;;;;;;;0.70;0.70;;;18.60;99.90;;;;;;5017816;28;20668;-75
2021/05/13 12:23:05;;;;;;;1.17;0.80;;;18.30;99.90;;;;;;5016472;28;20236;-78
2021/05/13 12:25:33;;;;;;;0.70;0.70;;;18.00;99.90;;;;;;5018650;28;20662;-78
2021/05/13 12:28:00;;;;;;;1.48;0.60;;;17.90;99.90;;;;;;5014786;28;20220;-76
2021/05/13 12:30:27;;;;;;;0.63;0.60;;;17.80;99.90;;;;;;5019061;28;20196;-78
2021/05/13 12:32:54;;;;;;;1.05;0.77;;;17.80;99.90;;;;;;5020571;28;20220;-78
2021/05/13 12:35:32;;;;;;;1.92;0.77;;;17.80;99.90;;;;;;5017486;28;20301;-76
2021/05/13 12:38:13;;;;;;;0.70;0.70;;;17.80;99.90;;;;;;5017275;28;20281;-79
2021/05/13 12:40:40;;;;;;;0.50;0.50;;;18.00;99.90;;;;;;5016662;28;20203;-78
2021/05/13 12:43:11;;;;;;;1.85;0.70;;;18.00;99.90;;;;;;5020059;28;20235;-79
2021/05/13 12:45:45;;;;;;;0.88;0.82;;;18.20;99.90;;;;;;5021195;28;20195;-78
2021/05/13 12:48:12;;;;;;;0.60;0.60;;;18.30;99.90;;;;;;5016055;28;20698;-78
2021/05/13 12:50:39;;;;;;;2.08;0.70;;;18.50;99.90;;;;;;5018692;28;21382;-77
2021/05/13 12:53:14;;;;;;;0.70;0.70;;;18.60;99.90;;;;;;5019494;28;20301;-79
2021/05/13 12:55:42;;;;;;;0.60;0.60;;;18.70;99.90;;;;;;5020248;28;20614;-78
2021/05/13 12:58:11;;;;;;;1.00;0.75;;;18.80;99.90;;;;;;5020214;28;20627;-79
2021/05/13 13:00:38;;;;;;;0.77;0.77;;;18.90;99.90;;;;;;5018663;28;20204;-78